Sparta, Ohio
Current Conditions -  °F | °C
As of 11:36 AM on Saturday 22 Nov 2014 (Local Time) from K4I3 Reporting Station
Broken Clouds Broken Clouds  
Wind Chill: 34°   Ceiling: 3900
Heat Index: 37°   Visibility: 7mi
Dew Point: 36°   Wind: 5mph
Humidity: 93%   Direction: 180°S
Pressure: 30.21"   Gusts: NA
Location:  40.39°N, 82.7°W
Report Text: K4I3 221636Z AUTO 18004KT 7SM SCT029 BKN039 BKN046 03/02 A3021 RMK AO2
Loading
Personal Weather Stations






























Interactive Weather Map New forecast layout! Learn more

10-Day Weather Forecast

Advertisements
Track Severe Weather on mobile